Time;durP1;ratioP1;P1;durP2;ratioP2;P2;SDS_P1;SDS_P2;PMS_P1;PMS_P2;Temp;Humidity;BMP_temperature;BMP_pressure;BME280_temperature;BME280_humidity;BME280_pressure;Samples;Min_cycle;Max_cycle;Signal;HPM_P1;HPM_P2
2022/08/31 00:03:59;;;;;;;6.18;3.70;;;;;;;;;;5043445;28;20044;-53
2022/08/31 00:06:49;;;;;;;6.75;3.22;;;;;;;;;;5044145;28;20383;-52
2022/08/31 00:09:34;;;;;;;5.25;3.53;;;;;;;;;;5044646;28;20497;-51
2022/08/31 00:12:21;;;;;;;4.93;3.58;;;;;;;;;;5042045;28;20033;-49
2022/08/31 00:15:07;;;;;;;12.07;3.47;;;;;;;;;;5041994;28;20112;-51
2022/08/31 00:17:55;;;;;;;5.85;3.60;;;;;;;;;;5041788;28;20368;-51
2022/08/31 00:20:42;;;;;;;4.75;3.72;;;;;;;;;;5043767;28;20522;-51
2022/08/31 00:23:28;;;;;;;12.25;3.85;;;;;;;;;;5046609;28;20029;-51
2022/08/31 00:26:15;;;;;;;7.38;4.00;;;;;;;;;;5046951;28;20029;-52
2022/08/31 00:29:01;;;;;;;6.63;3.85;;;;;;;;;;5050230;28;20021;-50
2022/08/31 00:31:47;;;;;;;6.07;3.58;;;;;;;;;;5047341;28;20064;-51
2022/08/31 00:34:32;;;;;;;6.50;4.05;;;;;;;;;;5048921;28;20032;-52
2022/08/31 00:37:19;;;;;;;6.22;4.28;;;;;;;;;;5046306;28;20032;-53
2022/08/31 00:40:05;;;;;;;9.30;3.60;;;;;;;;;;5048058;28;20523;-52
2022/08/31 00:42:51;;;;;;;7.22;3.85;;;;;;;;;;5050700;28;20052;-49
2022/08/31 00:45:36;;;;;;;4.43;3.20;;;;;;;;;;5047723;28;20041;-53
2022/08/31 00:48:22;;;;;;;7.63;3.65;;;;;;;;;;5045332;28;20029;-53
2022/08/31 00:51:08;;;;;;;6.53;3.70;;;;;;;;;;5049464;28;20032;-50
2022/08/31 00:53:54;;;;;;;7.60;3.33;;;;;;;;;;5045668;28;20051;-52
2022/08/31 00:56:43;;;;;;;7.85;4.05;;;;;;;;;;5044998;28;20043;-49
2022/08/31 00:59:30;;;;;;;6.95;4.15;;;;;;;;;;5044930;28;20036;-49
2022/08/31 01:02:17;;;;;;;5.57;3.20;;;;;;;;;;5045580;28;20488;-50
2022/08/31 01:05:04;;;;;;;6.13;2.95;;;;;;;;;;5046381;28;20728;-52
2022/08/31 01:07:51;;;;;;;11.55;3.05;;;;;;;;;;5047748;28;20052;-49
2022/08/31 01:10:40;;;;;;;4.55;2.50;;;;;;;;;;5048615;28;20108;-54
2022/08/31 01:13:26;;;;;;;3.28;2.35;;;;;;;;;;5047132;28;20122;-52
2022/08/31 01:16:40;;;;;;;4.35;2.50;;;;;;;;;;5042244;28;20044;-51
2022/08/31 01:19:33;;;;;;;3.50;2.47;;;;;;;;;;5045608;28;20061;-55
2022/08/31 01:22:29;;;;;;;7.72;2.40;;;;;;;;;;5046445;28;20068;-51
2022/08/31 01:25:15;;;;;;;7.70;2.42;;;;;;;;;;5044258;28;20116;-55
2022/08/31 01:28:04;;;;;;;2.38;2.08;;;;;;;;;;5041828;28;20029;-52
2022/08/31 01:31:00;;;;;;;3.08;2.50;;;;;;;;;;5047149;28;20033;-49
2022/08/31 01:33:45;;;;;;;7.72;2.42;;;;;;;;;;5042188;28;20513;-53
2022/08/31 01:36:33;;;;;;;3.65;2.00;;;;;;;;;;5045748;28;20037;-53
2022/08/31 01:39:19;;;;;;;2.40;2.20;;;;;;;;;;5047686;28;20029;-51
2022/08/31 01:42:05;;;;;;;3.20;2.45;;;;;;;;;;5045447;28;20021;-53
2022/08/31 01:44:51;;;;;;;3.92;2.53;;;;;;;;;;5045654;28;20041;-54
2022/08/31 01:47:38;;;;;;;5.35;2.83;;;;;;;;;;5044512;28;20037;-54
2022/08/31 01:50:24;;;;;;;3.75;2.53;;;;;;;;;;5046332;28;20508;-51
2022/08/31 01:53:10;;;;;;;4.72;2.35;;;;;;;;;;5046952;28;20552;-51
2022/08/31 01:55:55;;;;;;;2.63;2.10;;;;;;;;;;5043288;28;20761;-49
2022/08/31 01:58:41;;;;;;;3.10;2.28;;;;;;;;;;5045088;28;20041;-50
2022/08/31 02:01:32;;;;;;;6.32;2.33;;;;;;;;;;5044057;28;20036;-51
2022/08/31 02:04:22;;;;;;;3.25;2.50;;;;;;;;;;5029966;28;20496;-51
2022/08/31 02:07:07;;;;;;;6.22;2.30;;;;;;;;;;5042271;28;20048;-50
2022/08/31 02:09:53;;;;;;;2.72;2.42;;;;;;;;;;5046064;28;20109;-51
2022/08/31 02:12:39;;;;;;;6.57;2.13;;;;;;;;;;5043970;28;20031;-52
2022/08/31 02:15:25;;;;;;;4.10;2.10;;;;;;;;;;5047008;28;20533;-50
2022/08/31 02:18:10;;;;;;;2.90;1.90;;;;;;;;;;5043014;28;20029;-54
2022/08/31 02:20:56;;;;;;;5.28;1.95;;;;;;;;;;5042449;28;20040;-50
2022/08/31 02:23:42;;;;;;;5.93;2.47;;;;;;;;;;5042074;28;20068;-52
2022/08/31 02:26:28;;;;;;;8.32;2.63;;;;;;;;;;5046492;28;20033;-50
2022/08/31 02:29:14;;;;;;;2.95;2.20;;;;;;;;;;5041134;28;20094;-48
2022/08/31 02:31:59;;;;;;;6.60;2.40;;;;;;;;;;5043995;28;20468;-50
2022/08/31 02:34:47;;;;;;;4.95;2.00;;;;;;;;;;5040451;28;20137;-51
2022/08/31 02:37:32;;;;;;;3.88;2.33;;;;;;;;;;5038336;28;20402;-51
2022/08/31 02:40:18;;;;;;;5.53;2.40;;;;;;;;;;5039652;28;20095;-54
2022/08/31 02:43:05;;;;;;;6.75;2.10;;;;;;;;;;5044801;28;20121;-50
2022/08/31 02:45:51;;;;;;;3.80;2.10;;;;;;;;;;5043947;28;20390;-50
2022/08/31 02:48:37;;;;;;;3.00;2.50;;;;;;;;;;5043968;28;20092;-52
2022/08/31 02:51:23;;;;;;;3.65;2.40;;;;;;;;;;5046908;28;20090;-49
2022/08/31 02:54:09;;;;;;;3.03;2.10;;;;;;;;;;5044271;28;20040;-49
2022/08/31 02:56:55;;;;;;;5.18;2.58;;;;;;;;;;5039862;28;20033;-51
2022/08/31 02:59:41;;;;;;;4.00;2.45;;;;;;;;;;5044260;28;20041;-49
2022/08/31 03:02:27;;;;;;;4.22;2.50;;;;;;;;;;5042107;28;20041;-49
2022/08/31 03:05:13;;;;;;;4.57;2.83;;;;;;;;;;5045155;28;20071;-52
2022/08/31 03:07:59;;;;;;;4.47;2.60;;;;;;;;;;5046859;28;20560;-49
2022/08/31 03:10:44;;;;;;;3.50;2.90;;;;;;;;;;5044625;28;20106;-48
2022/08/31 03:13:30;;;;;;;3.95;2.83;;;;;;;;;;5043991;28;20033;-48
2022/08/31 03:16:16;;;;;;;5.22;2.70;;;;;;;;;;5042994;28;20375;-52
2022/08/31 03:19:02;;;;;;;3.97;2.33;;;;;;;;;;5041120;28;20033;-51
2022/08/31 03:21:48;;;;;;;5.78;3.00;;;;;;;;;;5045483;28;20480;-48
2022/08/31 03:24:34;;;;;;;3.53;2.40;;;;;;;;;;5043319;28;20481;-53
2022/08/31 03:27:20;;;;;;;5.20;2.72;;;;;;;;;;5043609;28;20037;-54
2022/08/31 03:30:08;;;;;;;2.78;2.22;;;;;;;;;;5043327;28;20029;-54
2022/08/31 03:32:54;;;;;;;3.75;2.50;;;;;;;;;;5046691;28;20025;-51
2022/08/31 03:35:43;;;;;;;9.10;2.50;;;;;;;;;;5044862;28;20017;-49
2022/08/31 03:38:29;;;;;;;4.68;2.35;;;;;;;;;;5044784;28;20041;-48
2022/08/31 03:41:18;;;;;;;6.32;2.38;;;;;;;;;;5042585;28;20087;-48
2022/08/31 03:44:04;;;;;;;2.75;2.28;;;;;;;;;;5041954;28;20025;-51
2022/08/31 03:46:54;;;;;;;5.90;2.30;;;;;;;;;;5040349;28;20060;-49
2022/08/31 03:49:39;;;;;;;6.57;2.20;;;;;;;;;;5042894;28;20063;-49
2022/08/31 03:52:26;;;;;;;4.18;2.20;;;;;;;;;;5041225;28;20033;-53
2022/08/31 03:55:12;;;;;;;5.30;2.35;;;;;;;;;;5040481;28;20517;-51
2022/08/31 03:57:58;;;;;;;2.92;2.03;;;;;;;;;;5044501;28;20067;-51
2022/08/31 04:00:43;;;;;;;2.75;2.30;;;;;;;;;;5048124;28;20025;-50
2022/08/31 04:03:29;;;;;;;2.50;2.30;;;;;;;;;;5047062;28;20033;-50
2022/08/31 04:06:15;;;;;;;2.13;1.80;;;;;;;;;;5044126;28;20091;-50
2022/08/31 04:09:00;;;;;;;3.00;2.20;;;;;;;;;;5047872;28;20055;-53
2022/08/31 04:11:46;;;;;;;4.90;2.10;;;;;;;;;;5044358;28;20037;-50
2022/08/31 04:14:32;;;;;;;6.97;2.30;;;;;;;;;;5048335;28;20444;-50
2022/08/31 04:17:18;;;;;;;5.10;1.98;;;;;;;;;;5044520;28;20433;-41
2022/08/31 04:20:04;;;;;;;2.90;1.95;;;;;;;;;;5047048;28;20533;-49
2022/08/31 04:22:50;;;;;;;4.15;1.98;;;;;;;;;;5042538;28;20029;-50
2022/08/31 04:25:38;;;;;;;3.08;2.20;;;;;;;;;;5034236;28;20044;-48
2022/08/31 04:28:24;;;;;;;5.95;2.50;;;;;;;;;;5046899;28;20112;-50
2022/08/31 04:31:09;;;;;;;4.50;2.03;;;;;;;;;;5050267;28;20021;-52
2022/08/31 04:33:56;;;;;;;3.83;2.30;;;;;;;;;;5047114;28;20020;-52
2022/08/31 04:36:44;;;;;;;2.35;2.13;;;;;;;;;;5045789;28;20025;-51
2022/08/31 04:39:30;;;;;;;3.30;2.17;;;;;;;;;;5044248;28;20056;-53
2022/08/31 04:42:15;;;;;;;7.07;2.03;;;;;;;;;;5045356;28;20640;-49
2022/08/31 04:45:02;;;;;;;2.70;2.00;;;;;;;;;;5046571;28;20530;-49
2022/08/31 04:47:47;;;;;;;3.35;2.10;;;;;;;;;;5046744;28;20492;-53
2022/08/31 04:50:33;;;;;;;4.80;2.25;;;;;;;;;;5043815;28;20033;-50
2022/08/31 04:53:19;;;;;;;5.78;2.50;;;;;;;;;;5048069;28;20116;-54
2022/08/31 04:56:13;;;;;;;2.65;2.40;;;;;;;;;;5048737;28;20040;-49
2022/08/31 04:59:01;;;;;;;4.35;2.10;;;;;;;;;;5042812;28;20031;-51
2022/08/31 05:01:47;;;;;;;3.42;2.40;;;;;;;;;;5044154;28;20060;-51
2022/08/31 05:04:33;;;;;;;6.88;2.42;;;;;;;;;;5044728;28;20036;-55
2022/08/31 05:07:18;;;;;;;3.85;2.40;;;;;;;;;;5044545;28;20035;-51
2022/08/31 05:10:05;;;;;;;5.22;2.30;;;;;;;;;;5046822;28;20041;-51
2022/08/31 05:12:51;;;;;;;2.50;2.05;;;;;;;;;;5047439;28;20025;-50
2022/08/31 05:15:43;;;;;;;4.05;2.38;;;;;;;;;;5047420;28;20063;-52
2022/08/31 05:18:28;;;;;;;3.80;2.38;;;;;;;;;;5042482;28;20397;-55
2022/08/31 05:21:29;;;;;;;2.83;2.30;;;;;;;;;;5043400;28;20433;-49
2022/08/31 05:24:20;;;;;;;3.35;2.20;;;;;;;;;;5035109;28;20432;-48
2022/08/31 05:27:06;;;;;;;5.88;2.38;;;;;;;;;;5050752;28;20628;-53
2022/08/31 05:29:51;;;;;;;6.55;2.72;;;;;;;;;;5043155;28;20048;-50
2022/08/31 05:32:37;;;;;;;2.40;2.20;;;;;;;;;;5044549;28;20087;-50
2022/08/31 05:35:23;;;;;;;4.65;2.45;;;;;;;;;;5047399;28;20070;-51
2022/08/31 05:38:09;;;;;;;3.78;2.50;;;;;;;;;;5048107;28;20021;-50
2022/08/31 05:40:57;;;;;;;5.65;2.53;;;;;;;;;;5046812;28;20075;-53
2022/08/31 05:43:43;;;;;;;2.92;2.40;;;;;;;;;;5043886;28;20128;-52
2022/08/31 05:46:29;;;;;;;3.40;2.38;;;;;;;;;;5044396;28;20029;-52
2022/08/31 05:49:15;;;;;;;3.53;2.65;;;;;;;;;;5044213;28;20028;-50
2022/08/31 05:52:03;;;;;;;5.47;2.83;;;;;;;;;;5042676;28;20119;-48
2022/08/31 05:54:50;;;;;;;2.85;2.33;;;;;;;;;;5045931;28;20041;-54
2022/08/31 05:57:37;;;;;;;6.55;2.65;;;;;;;;;;5042357;28;20048;-48
2022/08/31 06:00:24;;;;;;;5.13;2.42;;;;;;;;;;5046217;28;20029;-53
2022/08/31 06:03:09;;;;;;;6.82;2.22;;;;;;;;;;5044912;28;20029;-50
2022/08/31 06:05:55;;;;;;;4.15;2.78;;;;;;;;;;5047399;28;20031;-50
2022/08/31 06:08:42;;;;;;;8.00;2.58;;;;;;;;;;5047198;28;20032;-48
2022/08/31 06:11:29;;;;;;;5.60;3.45;;;;;;;;;;5042871;28;20839;-52
2022/08/31 06:14:15;;;;;;;6.05;2.50;;;;;;;;;;5043313;28;20033;-49
2022/08/31 06:17:00;;;;;;;7.95;2.40;;;;;;;;;;5046767;28;20025;-51
2022/08/31 06:19:46;;;;;;;5.38;2.35;;;;;;;;;;5043901;28;20493;-50
2022/08/31 06:22:35;;;;;;;7.28;2.42;;;;;;;;;;5042449;28;20075;-51
2022/08/31 06:25:22;;;;;;;4.78;2.30;;;;;;;;;;5045255;28;20040;-51
2022/08/31 06:28:13;;;;;;;7.10;2.22;;;;;;;;;;5043343;28;20034;-50
2022/08/31 06:31:03;;;;;;;3.72;2.50;;;;;;;;;;5043231;28;20052;-50
2022/08/31 06:33:50;;;;;;;3.55;2.72;;;;;;;;;;5044931;28;20021;-50
2022/08/31 06:36:36;;;;;;;5.97;2.65;;;;;;;;;;5044540;28;20056;-48
2022/08/31 06:39:22;;;;;;;5.72;2.88;;;;;;;;;;5044810;28;20086;-50
2022/08/31 06:42:08;;;;;;;5.18;2.60;;;;;;;;;;5044561;28;20818;-51
2022/08/31 06:44:54;;;;;;;6.10;2.92;;;;;;;;;;5045459;28;20512;-53
2022/08/31 06:47:40;;;;;;;7.07;2.90;;;;;;;;;;5045718;28;20597;-53
2022/08/31 06:50:26;;;;;;;4.63;2.63;;;;;;;;;;5043678;28;20098;-48
2022/08/31 06:53:12;;;;;;;6.40;2.97;;;;;;;;;;5046562;28;20037;-52
2022/08/31 06:56:24;;;;;;;3.42;2.17;;;;;;;;;;5044309;28;20102;-54
2022/08/31 06:59:11;;;;;;;7.15;2.80;;;;;;;;;;5040368;28;20029;-52
2022/08/31 07:01:58;;;;;;;6.38;3.15;;;;;;;;;;5044114;28;20037;-50
2022/08/31 07:04:44;;;;;;;4.10;2.90;;;;;;;;;;5038390;28;20029;-50
2022/08/31 07:07:30;;;;;;;3.67;2.40;;;;;;;;;;5044730;28;20036;-52
2022/08/31 07:10:18;;;;;;;15.25;3.05;;;;;;;;;;5044940;28;20394;-52
2022/08/31 07:13:03;;;;;;;3.30;2.50;;;;;;;;;;5045629;28;20094;-52
2022/08/31 07:15:49;;;;;;;5.68;3.13;;;;;;;;;;5041302;28;20032;-50
2022/08/31 07:18:35;;;;;;;6.20;2.70;;;;;;;;;;5038141;28;20021;-49
2022/08/31 07:21:24;;;;;;;4.13;2.50;;;;;;;;;;5041856;28;20032;-54
2022/08/31 07:24:12;;;;;;;5.30;2.40;;;;;;;;;;5042453;28;20040;-50
2022/08/31 07:27:01;;;;;;;5.60;2.70;;;;;;;;;;5044616;28;20033;-52
2022/08/31 07:29:47;;;;;;;5.53;2.60;;;;;;;;;;5044085;28;20112;-51
2022/08/31 07:32:33;;;;;;;3.30;2.50;;;;;;;;;;5045914;28;20033;-50
2022/08/31 07:35:18;;;;;;;4.78;3.00;;;;;;;;;;5038687;28;20041;-52
2022/08/31 07:44:17;;;;;;;5.93;2.50;;;;;;;;;;5027609;28;20021;-52
2022/08/31 07:47:03;;;;;;;7.60;2.58;;;;;;;;;;5031852;28;20028;-47
2022/08/31 07:49:51;;;;;;;2.90;2.70;;;;;;;;;;5032483;28;20079;-49
2022/08/31 07:52:45;;;;;;;3.58;3.00;;;;;;;;;;5027517;28;20033;-49
2022/08/31 07:55:33;;;;;;;3.42;3.00;;;;;;;;;;5017671;28;20048;-50
2022/08/31 07:58:21;;;;;;;4.18;3.10;;;;;;;;;;5029022;28;20079;-47
2022/08/31 08:01:07;;;;;;;3.40;3.10;;;;;;;;;;5029896;28;20065;-48
2022/08/31 08:03:53;;;;;;;3.72;3.33;;;;;;;;;;5032131;28;20032;-50
2022/08/31 08:06:39;;;;;;;3.22;2.90;;;;;;;;;;5027897;28;20033;-49
2022/08/31 08:09:26;;;;;;;3.75;3.42;;;;;;;;;;5033506;28;20060;-52
2022/08/31 08:12:14;;;;;;;3.92;3.53;;;;;;;;;;5028537;28;20045;-48
2022/08/31 08:15:00;;;;;;;5.68;3.80;;;;;;;;;;5028506;28;20069;-48
2022/08/31 08:17:46;;;;;;;3.92;3.20;;;;;;;;;;5034984;28;20036;-49
2022/08/31 08:20:33;;;;;;;3.83;2.85;;;;;;;;;;5046959;28;20037;-52
2022/08/31 08:23:18;;;;;;;3.45;3.10;;;;;;;;;;5050887;28;20060;-54
2022/08/31 08:26:09;;;;;;;6.15;3.10;;;;;;;;;;5051652;28;20028;-48
2022/08/31 08:28:56;;;;;;;3.92;3.25;;;;;;;;;;5056963;28;20024;-52
2022/08/31 08:31:43;;;;;;;3.90;3.10;;;;;;;;;;5047118;28;20048;-48
2022/08/31 08:34:28;;;;;;;5.20;3.20;;;;;;;;;;5054797;28;20044;-50
2022/08/31 08:37:14;;;;;;;7.63;3.28;;;;;;;;;;5049291;28;20075;-50
2022/08/31 08:40:03;;;;;;;3.70;3.40;;;;;;;;;;5054116;28;20025;-53
2022/08/31 08:42:49;;;;;;;7.70;3.08;;;;;;;;;;5039872;28;20390;-48
2022/08/31 08:45:35;;;;;;;3.17;2.90;;;;;;;;;;5052541;28;20036;-55
2022/08/31 08:48:26;;;;;;;5.72;3.20;;;;;;;;;;5051253;28;20058;-49
2022/08/31 08:51:15;;;;;;;6.80;3.13;;;;;;;;;;5054077;28;20028;-54
2022/08/31 08:54:09;;;;;;;8.80;3.30;;;;;;;;;;5056560;28;20262;-51
2022/08/31 08:56:56;;;;;;;5.20;2.90;;;;;;;;;;5057423;28;20048;-51
2022/08/31 08:59:44;;;;;;;12.40;3.10;;;;;;;;;;5049850;28;20098;-51
2022/08/31 09:02:43;;;;;;;3.60;3.30;;;;;;;;;;5056364;28;20060;-49
2022/08/31 09:06:05;;;;;;;3.20;3.00;;;;;;;;;;5050047;28;20039;-52
2022/08/31 09:09:23;;;;;;;5.78;3.17;;;;;;;;;;5056340;28;20028;-52
2022/08/31 09:12:44;;;;;;;6.35;3.72;;;;;;;;;;5049848;28;20029;-51
2022/08/31 09:15:36;;;;;;;6.80;2.90;;;;;;;;;;4994151;28;20034;-50
2022/08/31 09:18:32;;;;;;;3.58;2.95;;;;;;;;;;4997416;28;20066;-50
2022/08/31 09:21:33;;;;;;;6.30;3.63;;;;;;;;;;4989383;28;20074;-50
2022/08/31 09:24:22;;;;;;;4.03;3.20;;;;;;;;;;4996340;28;20034;-48
2022/08/31 09:27:18;;;;;;;6.22;2.88;;;;;;;;;;4993671;28;20577;-51
2022/08/31 09:30:05;;;;;;;4.63;3.25;;;;;;;;;;4991583;28;20108;-49
2022/08/31 09:32:56;;;;;;;3.33;2.70;;;;;;;;;;4996025;28;20976;-54
2022/08/31 09:35:42;;;;;;;6.15;2.92;;;;;;;;;;4991968;28;20053;-52
2022/08/31 09:38:31;;;;;;;4.60;3.17;;;;;;;;;;4978818;28;20056;-51
2022/08/31 09:41:19;;;;;;;5.30;2.95;;;;;;;;;;4994257;28;20034;-52
2022/08/31 09:44:29;;;;;;;7.90;4.00;;;;;;;;;;4993388;28;20019;-53
2022/08/31 09:47:57;;;;;;;5.35;3.20;;;;;;;;;;4991178;28;20068;-53
2022/08/31 09:50:44;;;;;;;14.93;3.58;;;;;;;;;;4990945;28;20030;-50
2022/08/31 09:56:54;;;;;;;5.88;2.97;;;;;;;;;;5047595;28;20467;-52
2022/08/31 09:59:46;;;;;;;11.80;3.40;;;;;;;;;;5051452;28;20094;-51
2022/08/31 10:02:37;;;;;;;5.20;3.20;;;;;;;;;;5054373;28;20097;-52
2022/08/31 10:05:39;;;;;;;11.07;3.17;;;;;;;;;;5059600;28;20032;-52
2022/08/31 10:08:40;;;;;;;8.25;3.15;;;;;;;;;;5036536;28;20091;-51
2022/08/31 10:11:30;;;;;;;6.97;3.40;;;;;;;;;;5042498;28;20044;-50
2022/08/31 10:14:25;;;;;;;3.15;2.75;;;;;;;;;;5051241;28;20107;-50
2022/08/31 10:17:52;;;;;;;4.97;2.92;;;;;;;;;;5055672;28;20060;-49
2022/08/31 10:20:45;;;;;;;4.47;2.83;;;;;;;;;;5048428;28;20040;-52
2022/08/31 10:23:55;;;;;;;4.90;3.10;;;;;;;;;;5052355;28;20685;-51
2022/08/31 10:26:47;;;;;;;2.78;2.58;;;;;;;;;;5054185;28;20036;-52
2022/08/31 10:29:39;;;;;;;6.45;3.17;;;;;;;;;;5038656;28;20487;-51
2022/08/31 10:32:40;;;;;;;5.63;2.70;;;;;;;;;;5054480;28;20040;-50
2022/08/31 10:35:39;;;;;;;3.50;3.05;;;;;;;;;;5055363;28;20377;-52
2022/08/31 10:38:33;;;;;;;3.08;2.78;;;;;;;;;;5057221;28;20071;-51
2022/08/31 10:41:29;;;;;;;2.60;2.40;;;;;;;;;;5051964;28;20090;-54
2022/08/31 10:44:26;;;;;;;4.63;2.40;;;;;;;;;;5050815;28;20043;-55
2022/08/31 10:47:14;;;;;;;2.95;2.72;;;;;;;;;;5056722;28;20543;-51
2022/08/31 10:50:03;;;;;;;4.65;3.10;;;;;;;;;;5049795;28;20037;-53
2022/08/31 10:53:01;;;;;;;5.60;2.67;;;;;;;;;;5055996;28;20025;-51
2022/08/31 10:56:01;;;;;;;3.03;2.35;;;;;;;;;;5054912;28;20065;-49
2022/08/31 10:59:04;;;;;;;5.90;2.58;;;;;;;;;;5053357;28;20037;-53
2022/08/31 11:02:01;;;;;;;5.32;2.28;;;;;;;;;;5049602;28;20082;-52
2022/08/31 11:05:12;;;;;;;4.50;2.00;;;;;;;;;;5054764;28;20035;-50
2022/08/31 11:08:30;;;;;;;2.40;2.20;;;;;;;;;;5060014;28;20055;-53
2022/08/31 11:11:27;;;;;;;2.78;2.47;;;;;;;;;;5052540;28;20041;-49
2022/08/31 11:14:49;;;;;;;4.72;2.00;;;;;;;;;;5053460;28;20028;-53
2022/08/31 11:18:11;;;;;;;4.20;1.98;;;;;;;;;;5049455;28;20033;-51
2022/08/31 11:21:05;;;;;;;3.75;2.28;;;;;;;;;;5050163;28;20036;-54
2022/08/31 11:24:19;;;;;;;4.40;3.97;;;;;;;;;;5051170;28;20033;-53
2022/08/31 11:27:35;;;;;;;3.80;1.95;;;;;;;;;;5049155;28;20063;-53
2022/08/31 11:30:25;;;;;;;2.97;2.13;;;;;;;;;;5051956;28;20032;-49
2022/08/31 11:33:18;;;;;;;2.83;2.13;;;;;;;;;;5056878;28;20036;-49
2022/08/31 11:36:07;;;;;;;2.70;2.22;;;;;;;;;;5050300;28;20105;-49
2022/08/31 11:39:02;;;;;;;2.50;2.38;;;;;;;;;;5052965;28;20033;-49
2022/08/31 11:41:49;;;;;;;13.13;2.45;;;;;;;;;;5055287;28;20485;-49
2022/08/31 11:44:37;;;;;;;2.55;2.40;;;;;;;;;;5050213;28;20040;-49
2022/08/31 11:47:26;;;;;;;2.40;2.20;;;;;;;;;;5052823;28;20021;-50
2022/08/31 11:50:12;;;;;;;6.85;2.30;;;;;;;;;;5061663;28;20489;-53
2022/08/31 11:53:15;;;;;;;5.55;2.50;;;;;;;;;;5055907;28;20028;-52
2022/08/31 11:56:03;;;;;;;4.75;2.28;;;;;;;;;;5052533;28;20045;-51
2022/08/31 11:59:22;;;;;;;3.90;2.45;;;;;;;;;;5055449;28;20041;-55
2022/08/31 12:02:20;;;;;;;3.88;2.90;;;;;;;;;;5045310;28;20478;-53
2022/08/31 12:05:06;;;;;;;7.60;2.72;;;;;;;;;;5049927;28;20514;-56
2022/08/31 12:07:52;;;;;;;4.22;2.80;;;;;;;;;;5053642;28;20116;-50
2022/08/31 12:10:53;;;;;;;4.93;2.78;;;;;;;;;;5052886;28;20039;-53
2022/08/31 12:14:00;;;;;;;4.80;2.50;;;;;;;;;;5044123;28;20037;-55
2022/08/31 12:17:20;;;;;;;2.78;2.33;;;;;;;;;;5054497;28;20043;-55
2022/08/31 12:20:29;;;;;;;4.30;2.75;;;;;;;;;;5052167;28;20029;-53
2022/08/31 12:23:39;;;;;;;4.25;2.65;;;;;;;;;;5058323;28;20025;-52
2022/08/31 12:27:02;;;;;;;5.22;2.72;;;;;;;;;;5057162;28;20112;-52
2022/08/31 12:29:48;;;;;;;6.60;2.78;;;;;;;;;;5049560;28;20148;-51
2022/08/31 12:32:38;;;;;;;3.05;2.72;;;;;;;;;;5054793;28;20028;-54
2022/08/31 12:35:27;;;;;;;3.40;2.42;;;;;;;;;;5056180;28;20044;-56
2022/08/31 12:38:25;;;;;;;2.75;2.55;;;;;;;;;;5047830;28;20025;-50
2022/08/31 12:41:12;;;;;;;4.80;2.88;;;;;;;;;;5051374;28;20069;-54
2022/08/31 12:43:58;;;;;;;11.45;4.20;;;;;;;;;;5054917;28;20630;-50
2022/08/31 12:46:44;;;;;;;4.85;2.70;;;;;;;;;;5051850;28;20033;-54
2022/08/31 12:49:42;;;;;;;9.88;5.10;;;;;;;;;;5053799;28;20024;-54
2022/08/31 12:52:56;;;;;;;5.05;3.20;;;;;;;;;;5052052;28;20083;-53
2022/08/31 12:55:53;;;;;;;5.35;2.80;;;;;;;;;;5059011;28;20056;-54
2022/08/31 12:59:06;;;;;;;8.50;4.13;;;;;;;;;;5042980;28;20130;-54
2022/08/31 13:01:52;;;;;;;3.58;2.70;;;;;;;;;;5052831;28;20044;-52
2022/08/31 13:04:44;;;;;;;9.98;4.70;;;;;;;;;;5057739;28;20040;-54
2022/08/31 13:07:33;;;;;;;19.58;7.35;;;;;;;;;;5048865;28;20073;-56
2022/08/31 13:10:35;;;;;;;18.30;7.00;;;;;;;;;;5055823;28;20044;-51
2022/08/31 13:13:26;;;;;;;3.05;2.78;;;;;;;;;;5048100;28;20060;-55
2022/08/31 13:16:12;;;;;;;7.97;2.90;;;;;;;;;;5049689;28;20041;-55
2022/08/31 13:19:04;;;;;;;2.65;2.45;;;;;;;;;;5045945;28;20032;-56
2022/08/31 13:22:15;;;;;;;6.82;2.55;;;;;;;;;;5050395;28;20029;-53
2022/08/31 13:25:34;;;;;;;9.52;4.55;;;;;;;;;;5049158;28;20120;-55
2022/08/31 13:28:29;;;;;;;5.32;2.60;;;;;;;;;;5045267;28;20029;-54
2022/08/31 13:31:18;;;;;;;8.63;3.75;;;;;;;;;;5052206;28;20111;-55
2022/08/31 13:34:08;;;;;;;2.80;2.60;;;;;;;;;;5052974;28;20021;-52
2022/08/31 13:36:58;;;;;;;5.97;2.70;;;;;;;;;;5052491;28;20029;-54
2022/08/31 13:39:45;;;;;;;4.30;2.75;;;;;;;;;;5051832;28;20032;-55
2022/08/31 13:42:40;;;;;;;2.63;2.47;;;;;;;;;;5054626;28;20025;-53
2022/08/31 13:45:34;;;;;;;6.65;3.13;;;;;;;;;;5062333;28;20508;-54
2022/08/31 13:48:32;;;;;;;3.05;2.72;;;;;;;;;;5047601;28;20025;-55
2022/08/31 13:51:19;;;;;;;12.15;4.65;;;;;;;;;;5055820;28;20040;-55
2022/08/31 13:54:07;;;;;;;14.77;5.65;;;;;;;;;;5049132;28;20039;-51
2022/08/31 13:56:57;;;;;;;5.38;2.83;;;;;;;;;;5041424;28;20112;-51
2022/08/31 13:59:43;;;;;;;8.10;3.25;;;;;;;;;;5044435;28;20067;-55
2022/08/31 14:02:31;;;;;;;15.65;5.03;;;;;;;;;;5057079;28;20077;-52
2022/08/31 14:05:46;;;;;;;2.85;2.45;;;;;;;;;;5051556;28;20032;-52
2022/08/31 14:08:32;;;;;;;4.78;3.28;;;;;;;;;;5038182;28;20047;-51
2022/08/31 14:11:20;;;;;;;3.95;3.00;;;;;;;;;;5056521;28;20035;-54
2022/08/31 14:14:11;;;;;;;17.85;6.60;;;;;;;;;;5047167;28;20060;-53
2022/08/31 14:17:02;;;;;;;20.58;6.93;;;;;;;;;;5050829;28;20064;-56
2022/08/31 14:19:48;;;;;;;12.27;5.40;;;;;;;;;;5054427;28;20123;-53
2022/08/31 14:22:35;;;;;;;4.75;2.55;;;;;;;;;;5046010;28;20025;-49
2022/08/31 14:25:20;;;;;;;2.92;2.72;;;;;;;;;;5048443;28;20404;-51
2022/08/31 14:28:07;;;;;;;3.40;2.50;;;;;;;;;;5056356;28;20091;-52
2022/08/31 14:30:54;;;;;;;10.18;2.83;;;;;;;;;;5056195;28;20048;-51
2022/08/31 14:33:46;;;;;;;4.85;2.45;;;;;;;;;;5038000;28;20115;-55
2022/08/31 14:36:40;;;;;;;3.33;3.08;;;;;;;;;;5051997;28;20047;-54
2022/08/31 14:39:46;;;;;;;3.45;2.45;;;;;;;;;;5041554;28;20044;-55
2022/08/31 14:42:35;;;;;;;3.03;2.20;;;;;;;;;;5043624;28;20041;-53
2022/08/31 14:45:21;;;;;;;149.27;43.70;;;;;;;;;;5039611;28;20064;-50
2022/08/31 14:48:09;;;;;;;113.45;33.67;;;;;;;;;;5050849;28;20044;-52
2022/08/31 14:50:55;;;;;;;3.50;2.95;;;;;;;;;;5055255;28;20028;-52
2022/08/31 14:53:41;;;;;;;7.75;2.92;;;;;;;;;;5059094;28;20111;-56
2022/08/31 14:56:31;;;;;;;3.28;3.05;;;;;;;;;;5048585;28;20105;-51
2022/08/31 14:59:19;;;;;;;4.93;2.80;;;;;;;;;;5048130;28;20631;-51
2022/08/31 15:02:11;;;;;;;7.40;2.40;;;;;;;;;;5057663;28;20025;-53
2022/08/31 15:04:58;;;;;;;2.90;2.70;;;;;;;;;;5046575;28;20052;-52
2022/08/31 15:07:45;;;;;;;3.55;2.88;;;;;;;;;;5054834;28;20036;-52
2022/08/31 15:10:31;;;;;;;3.42;2.60;;;;;;;;;;5054314;28;20028;-51
2022/08/31 15:13:17;;;;;;;5.28;2.50;;;;;;;;;;5049635;28;20033;-54
2022/08/31 15:16:03;;;;;;;8.35;3.25;;;;;;;;;;5055247;28;20028;-52
2022/08/31 15:18:53;;;;;;;3.20;2.55;;;;;;;;;;5057289;28;20051;-55
2022/08/31 15:21:41;;;;;;;3.78;2.53;;;;;;;;;;5052246;28;20753;-51
2022/08/31 15:24:28;;;;;;;3.05;2.85;;;;;;;;;;5042812;28;20037;-51
2022/08/31 15:27:14;;;;;;;2.60;2.40;;;;;;;;;;5045312;28;20041;-54
2022/08/31 15:30:06;;;;;;;3.28;2.28;;;;;;;;;;5056241;28;20028;-52
2022/08/31 15:32:53;;;;;;;3.28;2.58;;;;;;;;;;5054487;28;20033;-54
2022/08/31 15:35:40;;;;;;;3.88;2.28;;;;;;;;;;5051649;28;20111;-53
2022/08/31 15:38:26;;;;;;;4.60;2.70;;;;;;;;;;5043315;28;20036;-54
2022/08/31 15:41:12;;;;;;;3.70;2.50;;;;;;;;;;5051072;28;20029;-51
2022/08/31 15:43:57;;;;;;;2.60;2.40;;;;;;;;;;5052260;28;20509;-51
2022/08/31 15:49:49;;;;;;;3.08;2.25;;;;;;;;;;5032626;28;20110;-52
2022/08/31 15:52:38;;;;;;;4.75;2.55;;;;;;;;;;5046625;28;20035;-56
2022/08/31 15:55:27;;;;;;;3.28;2.47;;;;;;;;;;5029728;28;20099;-52
2022/08/31 15:58:13;;;;;;;3.58;2.40;;;;;;;;;;5048170;28;20108;-55
2022/08/31 16:00:59;;;;;;;3.47;2.30;;;;;;;;;;5049485;28;20504;-49
2022/08/31 16:03:54;;;;;;;6.50;2.38;;;;;;;;;;5055153;28;20547;-53
2022/08/31 16:06:40;;;;;;;3.13;2.42;;;;;;;;;;5058073;28;20025;-55
2022/08/31 16:09:26;;;;;;;4.28;2.45;;;;;;;;;;5057806;28;20058;-53
2022/08/31 16:12:14;;;;;;;3.55;2.40;;;;;;;;;;5051352;28;20041;-54
2022/08/31 16:15:00;;;;;;;2.70;2.30;;;;;;;;;;5052201;28;20087;-52
2022/08/31 16:17:46;;;;;;;3.78;2.70;;;;;;;;;;5052818;28;20111;-54
2022/08/31 16:20:33;;;;;;;10.55;2.60;;;;;;;;;;5055994;28;20029;-52
2022/08/31 16:23:20;;;;;;;3.67;2.33;;;;;;;;;;5049060;28;20033;-57
2022/08/31 16:26:10;;;;;;;6.13;2.50;;;;;;;;;;5051141;28;20405;-50
2022/08/31 16:28:57;;;;;;;7.30;2.35;;;;;;;;;;5048323;28;20147;-49
2022/08/31 16:31:43;;;;;;;5.55;2.63;;;;;;;;;;5052895;28;20032;-50
2022/08/31 16:34:30;;;;;;;3.08;2.70;;;;;;;;;;5052004;28;20481;-52
2022/08/31 16:37:16;;;;;;;4.40;2.33;;;;;;;;;;5058320;28;20548;-53
2022/08/31 16:40:03;;;;;;;5.13;2.33;;;;;;;;;;5050763;28;20613;-51
2022/08/31 16:42:49;;;;;;;6.35;2.63;;;;;;;;;;5063774;28;20028;-53
2022/08/31 16:45:38;;;;;;;2.85;2.65;;;;;;;;;;5060765;28;20041;-56
2022/08/31 16:51:29;;;;;;;3.22;2.90;;;;;;;;;;5055371;28;20044;-51
2022/08/31 16:54:16;;;;;;;7.18;2.20;;;;;;;;;;5056141;28;20029;-54
2022/08/31 16:57:02;;;;;;;3.92;2.30;;;;;;;;;;5046667;28;20131;-51
2022/08/31 16:59:48;;;;;;;4.63;2.28;;;;;;;;;;5056970;28;20115;-53
2022/08/31 17:02:33;;;;;;;2.83;2.50;;;;;;;;;;5056238;28;20025;-51
2022/08/31 17:05:19;;;;;;;8.57;2.78;;;;;;;;;;5062624;28;20481;-52
2022/08/31 17:08:05;;;;;;;6.82;2.90;;;;;;;;;;5048913;28;20032;-54
2022/08/31 17:10:50;;;;;;;2.50;2.30;;;;;;;;;;5057037;28;20116;-49
2022/08/31 17:13:36;;;;;;;4.10;3.17;;;;;;;;;;5048040;28;20029;-53
2022/08/31 17:16:27;;;;;;;3.85;2.85;;;;;;;;;;5056101;28;20040;-49
2022/08/31 17:19:13;;;;;;;3.10;2.80;;;;;;;;;;5052731;28;20424;-51